Baie-Saint-Paul, Canada
Current Conditions -  °F | °C
As of 3:00 PM on Thursday 27 Nov 2014 (Local Time) from CYOY Reporting Station
Few Clouds Few Clouds  
Wind Chill: 26°   Ceiling: Unl
Heat Index: 32°   Visibility: 15mi
Dew Point: 12°   Wind: 6mph
Humidity: 44%   Direction: 250°WSW
Pressure: 29.95"   Gusts: NA
Location:  47.43°N, 70.5°W
Report Text: CYOY 272000Z 25005KT 15SM FEW220 M00/M11 A2995 RMK CI1 SLP153
Loading
Personal Weather Stations






























Interactive Weather Map New forecast layout! Learn more

10-Day Weather Forecast

Advertisements
Track Severe Weather on mobile